sensor_id;sensor_type;location;lat;lon;timestamp;pressure;altitude;pressure_sealevel;temperature;humidity
34586;BME280;20816;50.950;11.108;2023-02-19T00:03:56;98438.41;;;8.72;100.00
34586;BME280;20816;50.950;11.108;2023-02-19T00:06:25;98436.66;;;8.69;100.00
34586;BME280;20816;50.950;11.108;2023-02-19T00:08:52;98431.41;;;8.71;100.00
34586;BME280;20816;50.950;11.108;2023-02-19T00:11:21;98424.50;;;8.67;100.00
34586;BME280;20816;50.950;11.108;2023-02-19T00:13:50;98429.66;;;8.72;100.00
34586;BME280;20816;50.950;11.108;2023-02-19T00:16:29;98426.16;;;8.73;100.00
34586;BME280;20816;50.950;11.108;2023-02-19T00:18:57;98420.91;;;8.73;100.00
34586;BME280;20816;50.950;11.108;2023-02-19T00:21:24;98421.53;;;8.85;100.00
34586;BME280;20816;50.950;11.108;2023-02-19T00:23:54;98419.06;;;8.78;100.00
34586;BME280;20816;50.950;11.108;2023-02-19T00:26:21;98414.59;;;8.84;100.00
34586;BME280;20816;50.950;11.108;2023-02-19T00:28:49;98408.53;;;8.81;100.00
34586;BME280;20816;50.950;11.108;2023-02-19T00:31:19;98414.50;;;8.89;100.00
34586;BME280;20816;50.950;11.108;2023-02-19T00:33:47;98411.81;;;8.92;100.00
34586;BME280;20816;50.950;11.108;2023-02-19T00:36:14;98390.00;;;8.91;100.00
34586;BME280;20816;50.950;11.108;2023-02-19T00:38:42;98388.31;;;8.87;100.00
34586;BME280;20816;50.950;11.108;2023-02-19T00:41:11;98383.88;;;8.91;100.00
34586;BME280;20816;50.950;11.108;2023-02-19T00:43:52;98369.00;;;8.93;100.00
34586;BME280;20816;50.950;11.108;2023-02-19T00:46:22;98375.03;;;8.98;100.00
34586;BME280;20816;50.950;11.108;2023-02-19T00:48:49;98364.53;;;8.98;100.00
34586;BME280;20816;50.950;11.108;2023-02-19T00:51:19;98360.13;;;9.00;100.00
34586;BME280;20816;50.950;11.108;2023-02-19T00:53:46;98363.72;;;8.96;100.00
34586;BME280;20816;50.950;11.108;2023-02-19T00:56:13;98353.19;;;8.97;100.00
34586;BME280;20816;50.950;11.108;2023-02-19T00:58:40;98350.59;;;8.96;100.00
34586;BME280;20816;50.950;11.108;2023-02-19T01:01:07;98341.84;;;8.97;100.00
34586;BME280;20816;50.950;11.108;2023-02-19T01:03:34;98327.72;;;9.04;100.00
34586;BME280;20816;50.950;11.108;2023-02-19T01:06:02;98333.09;;;8.98;100.00
34586;BME280;20816;50.950;11.108;2023-02-19T01:08:29;98337.28;;;9.07;100.00
34586;BME280;20816;50.950;11.108;2023-02-19T01:10:57;98331.22;;;9.03;100.00
34586;BME280;20816;50.950;11.108;2023-02-19T01:13:24;98334.63;;;9.08;100.00
34586;BME280;20816;50.950;11.108;2023-02-19T01:15:51;98339.06;;;9.05;100.00
34586;BME280;20816;50.950;11.108;2023-02-19T01:18:17;98335.59;;;9.04;100.00
34586;BME280;20816;50.950;11.108;2023-02-19T01:20:44;98331.22;;;9.03;100.00
34586;BME280;20816;50.950;11.108;2023-02-19T01:23:12;98329.38;;;9.08;100.00
34586;BME280;20816;50.950;11.108;2023-02-19T01:25:40;98328.47;;;9.09;100.00
34586;BME280;20816;50.950;11.108;2023-02-19T01:28:09;98319.00;;;9.02;100.00
34586;BME280;20816;50.950;11.108;2023-02-19T01:30:37;98318.03;;;9.08;100.00
34586;BME280;20816;50.950;11.108;2023-02-19T01:33:06;98315.44;;;9.06;100.00
34586;BME280;20816;50.950;11.108;2023-02-19T01:35:37;98310.19;;;9.06;100.00
34586;BME280;20816;50.950;11.108;2023-02-19T01:38:04;98299.72;;;9.06;100.00
34586;BME280;20816;50.950;11.108;2023-02-19T01:40:33;98311.09;;;9.05;100.00
34586;BME280;20816;50.950;11.108;2023-02-19T01:43:00;98305.75;;;9.10;100.00
34586;BME280;20816;50.950;11.108;2023-02-19T01:45:30;98307.50;;;9.09;100.00
34586;BME280;20816;50.950;11.108;2023-02-19T01:48:02;98300.53;;;9.08;100.00
34586;BME280;20816;50.950;11.108;2023-02-19T01:50:33;98305.00;;;9.03;100.00
34586;BME280;20816;50.950;11.108;2023-02-19T01:53:03;98296.13;;;9.10;100.00
34586;BME280;20816;50.950;11.108;2023-02-19T01:55:33;98284.88;;;9.05;100.00
34586;BME280;20816;50.950;11.108;2023-02-19T01:58:01;98286.66;;;9.03;100.00
34586;BME280;20816;50.950;11.108;2023-02-19T02:00:28;98294.16;;;9.20;100.00
34586;BME280;20816;50.950;11.108;2023-02-19T02:02:56;98290.69;;;9.19;100.00
34586;BME280;20816;50.950;11.108;2023-02-19T02:05:33;98290.81;;;9.13;100.00
34586;BME280;20816;50.950;11.108;2023-02-19T02:08:02;98284.84;;;9.07;100.00
34586;BME280;20816;50.950;11.108;2023-02-19T02:10:50;98287.28;;;9.16;100.00
34586;BME280;20816;50.950;11.108;2023-02-19T02:13:17;98285.75;;;9.06;100.00
34586;BME280;20816;50.950;11.108;2023-02-19T02:19:15;98268.13;;;9.12;100.00
34586;BME280;20816;50.950;11.108;2023-02-19T02:22:10;98262.97;;;9.08;100.00
34586;BME280;20816;50.950;11.108;2023-02-19T02:27:37;98230.78;;;9.01;100.00
34586;BME280;20816;50.950;11.108;2023-02-19T02:36:02;98245.81;;;8.93;100.00
34586;BME280;20816;50.950;11.108;2023-02-19T02:38:34;98242.16;;;9.00;100.00
34586;BME280;20816;50.950;11.108;2023-02-19T02:41:02;98250.06;;;8.98;100.00
34586;BME280;20816;50.950;11.108;2023-02-19T02:43:29;98242.16;;;9.00;100.00
34586;BME280;20816;50.950;11.108;2023-02-19T02:45:56;98235.06;;;9.05;100.00
34586;BME280;20816;50.950;11.108;2023-02-19T02:48:31;98227.09;;;9.10;100.00
34586;BME280;20816;50.950;11.108;2023-02-19T02:51:04;98215.00;;;9.03;100.00
34586;BME280;20816;50.950;11.108;2023-02-19T02:53:35;98222.88;;;9.04;100.00
34586;BME280;20816;50.950;11.108;2023-02-19T02:56:23;98224.50;;;9.08;100.00
34586;BME280;20816;50.950;11.108;2023-02-19T02:58:51;98208.78;;;9.08;100.00
34586;BME280;20816;50.950;11.108;2023-02-19T03:01:24;98206.97;;;9.10;100.00
34586;BME280;20816;50.950;11.108;2023-02-19T03:04:18;98215.75;;;9.09;100.00
34586;BME280;20816;50.950;11.108;2023-02-19T03:06:47;98210.47;;;9.12;100.00
34586;BME280;20816;50.950;11.108;2023-02-19T03:09:19;98215.88;;;9.05;100.00
34586;BME280;20816;50.950;11.108;2023-02-19T03:11:58;98215.00;;;9.03;100.00
34586;BME280;20816;50.950;11.108;2023-02-19T03:14:50;98212.31;;;9.07;100.00
34586;BME280;20816;50.950;11.108;2023-02-19T03:17:41;98203.66;;;9.02;100.00
34586;BME280;20816;50.950;11.108;2023-02-19T03:20:29;98203.53;;;9.08;100.00
34586;BME280;20816;50.950;11.108;2023-02-19T03:23:00;98206.25;;;9.04;100.00
34586;BME280;20816;50.950;11.108;2023-02-19T03:25:30;98194.91;;;9.03;100.00
34586;BME280;20816;50.950;11.108;2023-02-19T03:28:18;98207.31;;;8.95;100.00
34586;BME280;20816;50.950;11.108;2023-02-19T03:31:09;98207.50;;;8.86;100.00
34586;BME280;20816;50.950;11.108;2023-02-19T03:33:39;98206.53;;;8.91;100.00
34586;BME280;20816;50.950;11.108;2023-02-19T03:36:09;98187.94;;;9.02;100.00
34586;BME280;20816;50.950;11.108;2023-02-19T03:39:02;98189.88;;;8.94;100.00
34586;BME280;20816;50.950;11.108;2023-02-19T03:41:39;98195.31;;;8.85;100.00
34586;BME280;20816;50.950;11.108;2023-02-19T03:44:15;98192.66;;;8.86;100.00
34586;BME280;20816;50.950;11.108;2023-02-19T03:49:35;98193.38;;;8.93;100.00
34586;BME280;20816;50.950;11.108;2023-02-19T03:52:14;98192.59;;;8.89;100.00
34586;BME280;20816;50.950;11.108;2023-02-19T03:55:17;98194.19;;;8.96;100.00
34586;BME280;20816;50.950;11.108;2023-02-19T03:57:51;98192.41;;;8.98;100.00
34586;BME280;20816;50.950;11.108;2023-02-19T04:00:39;98205.59;;;8.94;100.00
34586;BME280;20816;50.950;11.108;2023-02-19T04:03:22;98208.13;;;8.98;100.00
34586;BME280;20816;50.950;11.108;2023-02-19T04:05:57;98204.53;;;9.04;100.00
34586;BME280;20816;50.950;11.108;2023-02-19T04:08:25;98207.19;;;9.01;100.00
34586;BME280;20816;50.950;11.108;2023-02-19T04:10:53;98211.53;;;9.02;100.00
34586;BME280;20816;50.950;11.108;2023-02-19T04:13:26;98205.25;;;9.09;100.00
34586;BME280;20816;50.950;11.108;2023-02-19T04:15:59;98214.81;;;9.12;100.00
34586;BME280;20816;50.950;11.108;2023-02-19T04:18:30;98220.00;;;9.15;100.00
34586;BME280;20816;50.950;11.108;2023-02-19T04:20:59;98224.25;;;9.20;100.00
34586;BME280;20816;50.950;11.108;2023-02-19T04:23:29;98228.44;;;9.27;100.00
34586;BME280;20816;50.950;11.108;2023-02-19T04:25:58;98223.19;;;9.29;100.00
34586;BME280;20816;50.950;11.108;2023-02-19T04:28:27;98222.31;;;9.29;100.00
34586;BME280;20816;50.950;11.108;2023-02-19T04:30:54;98222.47;;;9.22;100.00
34586;BME280;20816;50.950;11.108;2023-02-19T04:33:21;98227.69;;;9.22;100.00
34586;BME280;20816;50.950;11.108;2023-02-19T04:35:47;98218.81;;;9.28;100.00
34586;BME280;20816;50.950;11.108;2023-02-19T04:38:14;98225.72;;;9.32;100.00
34586;BME280;20816;50.950;11.108;2023-02-19T04:40:41;98225.97;;;9.21;100.00
34586;BME280;20816;50.950;11.108;2023-02-19T04:43:07;98229.50;;;9.20;100.00
34586;BME280;20816;50.950;11.108;2023-02-19T04:45:36;98242.69;;;9.16;100.00
34586;BME280;20816;50.950;11.108;2023-02-19T04:48:04;98225.28;;;9.13;100.00
34586;BME280;20816;50.950;11.108;2023-02-19T04:50:31;98226.31;;;9.06;100.00
34586;BME280;20816;50.950;11.108;2023-02-19T04:52:57;98235.06;;;9.05;100.00
34586;BME280;20816;50.950;11.108;2023-02-19T04:55:24;98235.94;;;9.06;100.00
34586;BME280;20816;50.950;11.108;2023-02-19T04:57:51;98243.88;;;9.01;100.00
34586;BME280;20816;50.950;11.108;2023-02-19T05:00:17;98243.97;;;8.98;100.00
34586;BME280;20816;50.950;11.108;2023-02-19T05:02:44;98251.16;;;8.87;100.00
34586;BME280;20816;50.950;11.108;2023-02-19T05:05:10;98244.19;;;8.86;100.00
34586;BME280;20816;50.950;11.108;2023-02-19T05:07:37;98252.19;;;8.81;100.00
34586;BME280;20816;50.950;11.108;2023-02-19T05:10:04;98258.47;;;8.73;100.00
34586;BME280;20816;50.950;11.108;2023-02-19T05:12:31;98253.22;;;8.73;100.00
34586;BME280;20816;50.950;11.108;2023-02-19T05:14:57;98255.84;;;8.71;100.00
34586;BME280;20816;50.950;11.108;2023-02-19T05:17:24;98271.69;;;8.66;100.00
34586;BME280;20816;50.950;11.108;2023-02-19T05:19:50;98264.84;;;8.59;100.00
34586;BME280;20816;50.950;11.108;2023-02-19T05:22:17;98280.53;;;8.59;100.00
34586;BME280;20816;50.950;11.108;2023-02-19T05:24:44;98266.56;;;8.60;100.00
34586;BME280;20816;50.950;11.108;2023-02-19T05:27:10;98285.00;;;8.54;100.00
34586;BME280;20816;50.950;11.108;2023-02-19T05:29:37;98275.59;;;8.44;100.00
34586;BME280;20816;50.950;11.108;2023-02-19T05:32:04;98297.34;;;8.49;100.00
34586;BME280;20816;50.950;11.108;2023-02-19T05:34:30;98299.09;;;8.49;100.00
34586;BME280;20816;50.950;11.108;2023-02-19T05:36:57;98292.91;;;8.51;100.00
34586;BME280;20816;50.950;11.108;2023-02-19T05:39:24;98292.13;;;8.46;100.00
34586;BME280;20816;50.950;11.108;2023-02-19T05:41:50;98294.78;;;8.45;100.00
34586;BME280;20816;50.950;11.108;2023-02-19T05:44:17;98298.22;;;8.47;100.00
34586;BME280;20816;50.950;11.108;2023-02-19T05:46:44;98303.59;;;8.40;100.00
34586;BME280;20816;50.950;11.108;2023-02-19T05:49:10;98315.06;;;8.32;100.00
34586;BME280;20816;50.950;11.108;2023-02-19T05:51:37;98316.81;;;8.30;100.00
34586;BME280;20816;50.950;11.108;2023-02-19T05:54:04;98312.44;;;8.30;100.00
34586;BME280;20816;50.950;11.108;2023-02-19T05:56:36;98322.97;;;8.29;100.00
34586;BME280;20816;50.950;11.108;2023-02-19T05:59:06;98321.22;;;8.28;100.00
34586;BME280;20816;50.950;11.108;2023-02-19T06:01:34;98322.06;;;8.30;100.00
34586;BME280;20816;50.950;11.108;2023-02-19T06:04:01;98323.81;;;8.31;100.00
34586;BME280;20816;50.950;11.108;2023-02-19T06:06:28;98323.75;;;8.34;100.00
34586;BME280;20816;50.950;11.108;2023-02-19T06:08:55;98325.56;;;8.32;100.00
34586;BME280;20816;50.950;11.108;2023-02-19T06:11:22;98319.44;;;8.31;100.00
34586;BME280;20816;50.950;11.108;2023-02-19T06:13:49;98338.78;;;8.24;100.00
34586;BME280;20816;50.950;11.108;2023-02-19T06:16:17;98336.06;;;8.29;100.00
34586;BME280;20816;50.950;11.108;2023-02-19T06:18:44;98330.03;;;8.22;100.00
34586;BME280;20816;50.950;11.108;2023-02-19T06:21:11;98339.59;;;8.26;100.00
34586;BME280;20816;50.950;11.108;2023-02-19T06:23:39;98316.91;;;8.27;100.00
34586;BME280;20816;50.950;11.108;2023-02-19T06:26:13;98346.69;;;8.20;100.00
34586;BME280;20816;50.950;11.108;2023-02-19T06:28:41;98372.88;;;8.20;100.00
34586;BME280;20816;50.950;11.108;2023-02-19T06:31:08;98381.56;;;8.20;100.00
34586;BME280;20816;50.950;11.108;2023-02-19T06:33:37;98375.47;;;8.20;100.00
34586;BME280;20816;50.950;11.108;2023-02-19T06:36:11;98377.16;;;8.22;100.00
34586;BME280;20816;50.950;11.108;2023-02-19T06:38:38;98384.22;;;8.19;100.00
34586;BME280;20816;50.950;11.108;2023-02-19T06:41:05;98392.88;;;8.22;100.00
34586;BME280;20816;50.950;11.108;2023-02-19T06:43:33;98395.66;;;8.13;100.00
34586;BME280;20816;50.950;11.108;2023-02-19T06:46:01;98405.34;;;8.08;100.00
34586;BME280;20816;50.950;11.108;2023-02-19T06:48:29;98408.84;;;8.07;100.00
34586;BME280;20816;50.950;11.108;2023-02-19T06:50:56;98390.41;;;8.14;100.00
34586;BME280;20816;50.950;11.108;2023-02-19T06:53:23;98413.16;;;8.09;100.00
34586;BME280;20816;50.950;11.108;2023-02-19T06:55:58;98411.53;;;8.02;100.00
34586;BME280;20816;50.950;11.108;2023-02-19T06:58:26;98427.16;;;8.08;100.00
34586;BME280;20816;50.950;11.108;2023-02-19T07:00:53;98412.38;;;8.03;100.00
34586;BME280;20816;50.950;11.108;2023-02-19T07:03:20;98420.25;;;8.01;100.00
34586;BME280;20816;50.950;11.108;2023-02-19T07:05:47;98423.78;;;8.00;100.00
34586;BME280;20816;50.950;11.108;2023-02-19T07:08:14;98415.03;;;8.01;100.00
34586;BME280;20816;50.950;11.108;2023-02-19T07:10:52;98423.78;;;8.00;100.00
34586;BME280;20816;50.950;11.108;2023-02-19T07:13:19;98428.94;;;8.06;100.00
34586;BME280;20816;50.950;11.108;2023-02-19T07:15:46;98429.72;;;8.10;100.00
34586;BME280;20816;50.950;11.108;2023-02-19T07:18:13;98427.91;;;8.17;100.00
34586;BME280;20816;50.950;11.108;2023-02-19T07:20:39;98431.31;;;8.20;100.00
34586;BME280;20816;50.950;11.108;2023-02-19T07:23:06;98434.91;;;8.13;100.00
34586;BME280;20816;50.950;11.108;2023-02-19T07:25:33;98447.94;;;8.18;100.00
34586;BME280;20816;50.950;11.108;2023-02-19T07:27:59;98445.38;;;8.14;100.00
34586;BME280;20816;50.950;11.108;2023-02-19T07:30:26;98467.06;;;8.21;100.00
34586;BME280;20816;50.950;11.108;2023-02-19T07:32:53;98463.59;;;8.21;100.00
34586;BME280;20816;50.950;11.108;2023-02-19T07:35:19;98462.06;;;8.07;100.00
34586;BME280;20816;50.950;11.108;2023-02-19T07:37:46;98465.44;;;8.14;100.00
34586;BME280;20816;50.950;11.108;2023-02-19T07:40:13;98465.31;;;8.22;100.00
34586;BME280;20816;50.950;11.108;2023-02-19T07:42:39;98475.75;;;8.26;100.00
34586;BME280;20816;50.950;11.108;2023-02-19T07:45:06;98478.31;;;8.31;100.00
34586;BME280;20816;50.950;11.108;2023-02-19T07:47:33;98475.59;;;8.37;100.00
34586;BME280;20816;50.950;11.108;2023-02-19T07:50:00;98479.97;;;8.36;100.00
34586;BME280;20816;50.950;11.108;2023-02-19T07:52:27;98479.94;;;8.41;100.00
34586;BME280;20816;50.950;11.108;2023-02-19T07:54:54;98496.56;;;8.37;100.00
34586;BME280;20816;50.950;11.108;2023-02-19T07:57:20;98496.56;;;8.37;100.00
34586;BME280;20816;50.950;11.108;2023-02-19T07:59:47;98494.84;;;8.33;100.00
34586;BME280;20816;50.950;11.108;2023-02-19T08:02:15;98496.53;;;8.40;100.00
34586;BME280;20816;50.950;11.108;2023-02-19T08:05:01;98494.69;;;8.45;100.00
34586;BME280;20816;50.950;11.108;2023-02-19T08:07:33;98502.31;;;8.60;100.00
34586;BME280;20816;50.950;11.108;2023-02-19T08:10:00;98505.84;;;8.59;100.00
34586;BME280;20816;50.950;11.108;2023-02-19T08:12:59;98514.63;;;8.57;100.00
34586;BME280;20816;50.950;11.108;2023-02-19T08:15:45;98519.00;;;8.56;100.00
34586;BME280;20816;50.950;11.108;2023-02-19T08:18:13;98521.72;;;8.49;100.00
34586;BME280;20816;50.950;11.108;2023-02-19T08:20:40;98517.34;;;8.49;100.00
34586;BME280;20816;50.950;11.108;2023-02-19T08:23:08;98522.47;;;8.57;100.00
34586;BME280;20816;50.950;11.108;2023-02-19T08:25:35;98520.56;;;8.66;100.00
34586;BME280;20816;50.950;11.108;2023-02-19T08:28:02;98524.00;;;8.72;100.00
34586;BME280;20816;50.950;11.108;2023-02-19T08:30:30;98538.06;;;8.64;100.00
34586;BME280;20816;50.950;11.108;2023-02-19T08:32:59;98543.47;;;8.55;100.00
34586;BME280;20816;50.950;11.108;2023-02-19T08:35:27;98548.56;;;8.64;100.00
34586;BME280;20816;50.950;11.108;2023-02-19T08:37:56;98550.28;;;8.65;100.00
34586;BME280;20816;50.950;11.108;2023-02-19T08:40:24;98559.03;;;8.64;100.00
34586;BME280;20816;50.950;11.108;2023-02-19T08:42:51;98559.06;;;8.61;100.00
34586;BME280;20816;50.950;11.108;2023-02-19T08:45:18;98562.50;;;8.66;100.00
34586;BME280;20816;50.950;11.108;2023-02-19T08:47:45;98567.59;;;8.76;100.00
34586;BME280;20816;50.950;11.108;2023-02-19T08:50:12;98571.03;;;8.78;100.00
34586;BME280;20816;50.950;11.108;2023-02-19T08:52:39;98576.34;;;8.75;100.00
34586;BME280;20816;50.950;11.108;2023-02-19T08:55:06;98579.72;;;8.83;100.00
34586;BME280;20816;50.950;11.108;2023-02-19T08:57:35;98576.88;;;8.95;100.00
34586;BME280;20816;50.950;11.108;2023-02-19T09:00:04;98579.13;;;9.19;100.00
34586;BME280;20816;50.950;11.108;2023-02-19T09:02:31;98580.81;;;9.23;100.00
34586;BME280;20816;50.950;11.108;2023-02-19T09:04:58;98584.19;;;9.32;100.00
34586;BME280;20816;50.950;11.108;2023-02-19T09:07:25;98584.09;;;9.35;100.00
34586;BME280;20816;50.950;11.108;2023-02-19T09:09:51;98588.50;;;9.34;100.00
34586;BME280;20816;50.950;11.108;2023-02-19T09:12:18;98591.16;;;9.33;100.00
34586;BME280;20816;50.950;11.108;2023-02-19T09:14:45;98596.63;;;9.17;100.00
34586;BME280;20816;50.950;11.108;2023-02-19T09:17:12;98590.66;;;9.09;100.00
34586;BME280;20816;50.950;11.108;2023-02-19T09:19:39;98610.16;;;8.91;100.00
34586;BME280;20816;50.950;11.108;2023-02-19T09:22:06;98630.38;;;8.83;100.00
34586;BME280;20816;50.950;11.108;2023-02-19T09:24:32;98627.47;;;8.40;100.00
34586;BME280;20816;50.950;11.108;2023-02-19T09:26:59;98635.81;;;7.96;100.00
34586;BME280;20816;50.950;11.108;2023-02-19T09:29:27;98653.84;;;7.34;100.00
34586;BME280;20816;50.950;11.108;2023-02-19T09:31:55;98663.66;;;6.98;100.00
34586;BME280;20816;50.950;11.108;2023-02-19T09:34:24;98678.50;;;6.95;100.00
34586;BME280;20816;50.950;11.108;2023-02-19T09:36:51;98676.03;;;6.69;100.00
34586;BME280;20816;50.950;11.108;2023-02-19T09:39:19;98683.03;;;6.64;100.00
34586;BME280;20816;50.950;11.108;2023-02-19T09:41:51;98680.47;;;6.50;100.00
34586;BME280;20816;50.950;11.108;2023-02-19T09:44:37;98688.44;;;6.20;100.00
34586;BME280;20816;50.950;11.108;2023-02-19T09:47:07;98707.59;;;6.11;100.00
34586;BME280;20816;50.950;11.108;2023-02-19T09:49:39;98713.63;;;6.25;100.00
34586;BME280;20816;50.950;11.108;2023-02-19T09:54:59;98724.94;;;6.18;100.00
34586;BME280;20816;50.950;11.108;2023-02-19T09:57:29;98717.13;;;6.15;100.00
34586;BME280;20816;50.950;11.108;2023-02-19T10:00:01;98712.78;;;6.20;100.00
34586;BME280;20816;50.950;11.108;2023-02-19T10:02:29;98725.75;;;6.40;100.00
34586;BME280;20816;50.950;11.108;2023-02-19T10:04:56;98731.81;;;6.53;100.00
34586;BME280;20816;50.950;11.108;2023-02-19T10:07:32;98728.38;;;6.46;100.00
34586;BME280;20816;50.950;11.108;2023-02-19T10:12:44;98739.63;;;6.63;100.00
34586;BME280;20816;50.950;11.108;2023-02-19T10:17:54;98753.44;;;6.93;100.00
34586;BME280;20816;50.950;11.108;2023-02-19T10:20:21;98756.03;;;6.90;100.00
34586;BME280;20816;50.950;11.108;2023-02-19T10:25:23;98772.56;;;6.92;100.00
34586;BME280;20816;50.950;11.108;2023-02-19T10:27:50;98769.16;;;6.74;100.00
34586;BME280;20816;50.950;11.108;2023-02-19T10:30:21;98787.41;;;6.93;100.00
34586;BME280;20816;50.950;11.108;2023-02-19T10:35:38;98805.72;;;6.81;100.00
34586;BME280;20816;50.950;11.108;2023-02-19T10:38:18;98797.88;;;6.85;100.00
34586;BME280;20816;50.950;11.108;2023-02-19T10:40:46;98812.69;;;6.75;100.00
34586;BME280;20816;50.950;11.108;2023-02-19T10:43:23;98817.06;;;6.66;100.00
34586;BME280;20816;50.950;11.108;2023-02-19T10:45:57;98844.97;;;6.61;100.00
34586;BME280;20816;50.950;11.108;2023-02-19T10:48:29;98825.78;;;6.71;100.00
34586;BME280;20816;50.950;11.108;2023-02-19T10:51:09;98838.00;;;6.61;100.00
34586;BME280;20816;50.950;11.108;2023-02-19T10:53:47;98844.97;;;6.61;100.00
34586;BME280;20816;50.950;11.108;2023-02-19T10:56:25;98846.66;;;6.71;100.00
34586;BME280;20816;50.950;11.108;2023-02-19T10:58:53;98860.63;;;6.42;100.00
34586;BME280;20816;50.950;11.108;2023-02-19T11:01:22;98857.16;;;6.53;100.00
34586;BME280;20816;50.950;11.108;2023-02-19T11:03:51;98868.47;;;6.42;100.00
34586;BME280;20816;50.950;11.108;2023-02-19T11:06:20;98864.09;;;6.63;100.00
34586;BME280;20816;50.950;11.108;2023-02-19T11:09:00;98868.47;;;6.68;100.00
34586;BME280;20816;50.950;11.108;2023-02-19T11:11:49;98878.03;;;6.56;100.00
34586;BME280;20816;50.950;11.108;2023-02-19T11:14:19;98885.00;;;6.55;100.00
34586;BME280;20816;50.950;11.108;2023-02-19T11:16:56;98894.59;;;6.44;100.00
34586;BME280;20816;50.950;11.108;2023-02-19T11:21:59;98892.84;;;6.43;100.00
34586;BME280;20816;50.950;11.108;2023-02-19T11:24:34;98904.16;;;6.60;100.00
34586;BME280;20816;50.950;11.108;2023-02-19T11:27:06;98891.09;;;6.65;100.00
34586;BME280;20816;50.950;11.108;2023-02-19T11:29:39;98892.84;;;6.49;100.00
34586;BME280;20816;50.950;11.108;2023-02-19T11:32:24;98892.84;;;6.49;100.00
34586;BME280;20816;50.950;11.108;2023-02-19T11:35:18;98895.47;;;6.35;100.00
34586;BME280;20816;50.950;11.108;2023-02-19T11:37:57;98899.81;;;6.41;100.00
34586;BME280;20816;50.950;11.108;2023-02-19T11:54:19;98911.13;;;6.20;100.00
34586;BME280;20816;50.950;11.108;2023-02-19T11:57:02;98912.00;;;6.36;100.00
34586;BME280;20816;50.950;11.108;2023-02-19T12:02:33;98930.25;;;6.50;100.00
34586;BME280;20816;50.950;11.108;2023-02-19T12:05:30;98938.97;;;6.45;100.00
34586;BME280;20816;50.950;11.108;2023-02-19T12:08:13;98937.22;;;6.41;100.00
34586;BME280;20816;50.950;11.108;2023-02-19T12:10:59;98945.06;;;6.23;100.00
34586;BME280;20816;50.950;11.108;2023-02-19T12:24:27;98945.88;;;6.01;100.00
34586;BME280;20816;50.950;11.108;2023-02-19T12:32:29;98956.31;;;6.01;100.00
34586;BME280;20816;50.950;11.108;2023-02-19T12:43:28;98968.44;;;5.86;100.00
34586;BME280;20816;50.950;11.108;2023-02-19T12:46:02;98968.50;;;5.99;100.00
34586;BME280;20816;50.950;11.108;2023-02-19T12:48:48;98965.03;;;6.03;100.00
34586;BME280;20816;50.950;11.108;2023-02-19T12:51:25;98965.03;;;6.03;100.00
34586;BME280;20816;50.950;11.108;2023-02-19T12:54:10;98964.06;;;5.82;100.00
34586;BME280;20816;50.950;11.108;2023-02-19T12:56:45;98971.94;;;5.92;100.00
34586;BME280;20816;50.950;11.108;2023-02-19T12:59:20;98961.53;;;6.01;100.00
34586;BME280;20816;50.950;11.108;2023-02-19T13:02:32;98967.63;;;6.00;100.00
34586;BME280;20816;50.950;11.108;2023-02-19T13:05:07;98974.53;;;5.90;100.00
34586;BME280;20816;50.950;11.108;2023-02-19T13:07:52;98959.78;;;6.01;100.00
34586;BME280;20816;50.950;11.108;2023-02-19T13:11:26;98954.59;;;6.09;100.00
34586;BME280;20816;50.950;11.108;2023-02-19T13:13:44;98958.97;;;6.14;100.00
34586;BME280;20816;50.950;11.108;2023-02-19T13:16:14;98965.91;;;6.15;100.00
34586;BME280;20816;50.950;11.108;2023-02-19T13:18:55;98971.97;;;6.01;100.00
34586;BME280;20816;50.950;11.108;2023-02-19T13:21:27;98977.97;;;5.80;100.00
34586;BME280;20816;50.950;11.108;2023-02-19T13:24:24;98983.25;;;5.90;100.00
34586;BME280;20816;50.950;11.108;2023-02-19T13:35:48;98979.81;;;6.10;100.00
34586;BME280;20816;50.950;11.108;2023-02-19T13:38:17;98985.03;;;6.05;100.00
34586;BME280;20816;50.950;11.108;2023-02-19T13:40:57;98996.38;;;6.24;100.00
34586;BME280;20816;50.950;11.108;2023-02-19T13:43:36;98992.91;;;6.42;100.00
34586;BME280;20816;50.950;11.108;2023-02-19T13:46:07;98993.81;;;6.45;100.00
34586;BME280;20816;50.950;11.108;2023-02-19T13:48:37;99001.63;;;6.42;100.00
34586;BME280;20816;50.950;11.108;2023-02-19T13:59:32;99020.81;;;6.54;100.00
34586;BME280;20816;50.950;11.108;2023-02-19T14:14:45;99045.19;;;6.68;100.00
34586;BME280;20816;50.950;11.108;2023-02-19T14:19:52;99039.97;;;6.91;100.00
34586;BME280;20816;50.950;11.108;2023-02-19T14:28:10;99032.13;;;6.82;100.00
34586;BME280;20816;50.950;11.108;2023-02-19T14:33:38;99034.75;;;6.77;100.00
34586;BME280;20816;50.950;11.108;2023-02-19T14:39:05;99028.63;;;6.67;100.00
34586;BME280;20816;50.950;11.108;2023-02-19T14:41:36;99027.78;;;6.70;100.00
34586;BME280;20816;50.950;11.108;2023-02-19T14:44:06;99021.66;;;6.75;100.00
34586;BME280;20816;50.950;11.108;2023-02-19T14:46:37;99015.59;;;6.78;100.00
34586;BME280;20816;50.950;11.108;2023-02-19T14:50:00;99012.09;;;6.64;100.00
34586;BME280;20816;50.950;11.108;2023-02-19T14:52:43;99019.06;;;6.74;100.00
34586;BME280;20816;50.950;11.108;2023-02-19T14:55:31;99030.41;;;6.76;100.00
34586;BME280;20816;50.950;11.108;2023-02-19T14:58:11;99030.41;;;6.78;100.00
34586;BME280;20816;50.950;11.108;2023-02-19T15:00:40;99033.84;;;6.64;100.00
34586;BME280;20816;50.950;11.108;2023-02-19T15:03:32;99032.97;;;6.56;100.00
34586;BME280;20816;50.950;11.108;2023-02-19T15:06:14;99035.56;;;6.41;100.00
34586;BME280;20816;50.950;11.108;2023-02-19T15:08:45;99029.47;;;6.36;100.00
34586;BME280;20816;50.950;11.108;2023-02-19T15:11:19;99036.44;;;6.29;100.00
34586;BME280;20816;50.950;11.108;2023-02-19T15:13:52;99035.56;;;6.27;100.00